createdAt,value
2022-12-15T00:01:49.725Z,99869.56
2022-12-15T00:04:34.538Z,99866.97
2022-12-15T00:07:19.242Z,99861.72
2022-12-15T00:10:04.376Z,99867.88
2022-12-15T00:12:49.237Z,99862.63
2022-12-15T00:15:34.068Z,99866.19
2022-12-15T00:18:25.963Z,99874.94
2022-12-15T00:21:15.366Z,99869.72
2022-12-15T00:24:00.083Z,99879.44
2022-12-15T00:26:44.883Z,99876.13
2022-12-15T00:29:29.588Z,99878.72
2022-12-15T00:32:14.252Z,99885.75
2022-12-15T00:34:59.199Z,99889.13
2022-12-15T00:37:44.100Z,99891.81
2022-12-15T00:40:11.058Z,99897.88
2022-12-15T00:42:37.517Z,99900.50
2022-12-15T00:45:04.134Z,99895.28
2022-12-15T00:47:32.438Z,99885.69
2022-12-15T00:50:17.894Z,99888.28
2022-12-15T00:53:03.327Z,99887.28
2022-12-15T00:55:48.112Z,99890.75
2022-12-15T00:58:32.888Z,99883.72
2022-12-15T01:01:24.897Z,99892.34
2022-12-15T01:04:10.128Z,99889.81
2022-12-15T01:06:55.201Z,99888.97
2022-12-15T01:09:39.870Z,99894.19
2022-12-15T01:12:25.161Z,99900.28
2022-12-15T01:15:09.924Z,99896.81
2022-12-15T01:17:54.683Z,99891.66
2022-12-15T01:20:21.222Z,99896.03
2022-12-15T01:22:54.029Z,99893.53
2022-12-15T01:25:23.255Z,99890.91
2022-12-15T01:27:50.381Z,99887.53
2022-12-15T01:30:23.200Z,99904.06
2022-12-15T01:32:49.922Z,99905.00
2022-12-15T01:35:17.611Z,99904.13
2022-12-15T01:37:44.474Z,99912.84
2022-12-15T01:40:35.608Z,99915.47
2022-12-15T01:43:02.145Z,99914.53
2022-12-15T01:45:28.384Z,99912.84
2022-12-15T01:48:09.217Z,99923.31
2022-12-15T01:50:42.183Z,99925.91
2022-12-15T01:53:09.475Z,99932.00
2022-12-15T01:55:36.854Z,99924.22
2022-12-15T01:58:06.802Z,99921.59
2022-12-15T02:00:34.134Z,99924.22
2022-12-15T02:03:02.008Z,99928.53
2022-12-15T02:05:31.657Z,99931.16
2022-12-15T02:08:00.948Z,99936.38
2022-12-15T02:10:42.393Z,99945.97
2022-12-15T02:14:04.181Z,99941.63
2022-12-15T02:17:29.472Z,99939.00
2022-12-15T02:20:43.946Z,99948.53
2022-12-15T02:23:41.229Z,99951.13
2022-12-15T02:26:38.219Z,99942.44
2022-12-15T02:29:36.018Z,99948.53
2022-12-15T02:32:14.898Z,99948.53
2022-12-15T02:34:57.465Z,99952.09
2022-12-15T02:37:31.712Z,99953.75
2022-12-15T02:39:58.153Z,99955.44
2022-12-15T02:42:28.406Z,99955.44
2022-12-15T02:45:09.981Z,99945.84
2022-12-15T02:47:46.156Z,99948.38
2022-12-15T02:50:37.253Z,99951.91
2022-12-15T02:53:34.354Z,99958.81
2022-12-15T02:56:29.888Z,99958.75
2022-12-15T02:59:02.017Z,99962.22
2022-12-15T03:01:36.782Z,99959.59
2022-12-15T03:04:07.328Z,99957.75
2022-12-15T03:06:33.784Z,99966.38
2022-12-15T03:09:00.125Z,99966.28
2022-12-15T03:11:26.956Z,99961.91
2022-12-15T03:13:54.060Z,99968.75
2022-12-15T03:16:21.153Z,99968.69
2022-12-15T03:18:47.684Z,99968.69
2022-12-15T03:21:14.170Z,99963.44
2022-12-15T03:23:40.576Z,99971.19
2022-12-15T03:26:06.935Z,99978.13
2022-12-15T03:28:34.055Z,99974.59
2022-12-15T03:31:00.415Z,99976.28
2022-12-15T03:33:26.774Z,99986.75
2022-12-15T03:35:53.065Z,99985.81
2022-12-15T03:38:19.406Z,99984.88
2022-12-15T03:40:45.750Z,99981.38
2022-12-15T03:43:12.171Z,99976.97
2022-12-15T03:45:38.567Z,99988.28
2022-12-15T03:48:05.019Z,99993.44
2022-12-15T03:50:31.373Z,99996.06
2022-12-15T03:53:02.507Z,99990.84
2022-12-15T03:55:29.468Z,99998.69
2022-12-15T03:57:56.268Z,100007.38
2022-12-15T04:00:24.601Z,99997.75
2022-12-15T04:02:51.654Z,99994.28
2022-12-15T04:05:22.585Z,99997.75
2022-12-15T04:07:48.906Z,99995.06
2022-12-15T04:10:15.473Z,100002.97
2022-12-15T04:12:41.925Z,100002.13
2022-12-15T04:15:10.334Z,100006.53
2022-12-15T04:17:36.938Z,100010.94
2022-12-15T04:20:10.256Z,100005.69
2022-12-15T04:22:42.021Z,100019.63
2022-12-15T04:25:30.109Z,100016.22
2022-12-15T04:28:14.941Z,100017.16
2022-12-15T04:31:04.303Z,100019.78
2022-12-15T04:33:50.170Z,100015.44
2022-12-15T04:36:35.363Z,100022.47
2022-12-15T04:39:22.966Z,100024.25
2022-12-15T04:42:08.278Z,100027.75
2022-12-15T04:44:53.315Z,100033.00
2022-12-15T04:47:38.092Z,100039.16
2022-12-15T04:50:23.314Z,100034.88
2022-12-15T04:53:07.975Z,100039.22
2022-12-15T04:55:56.363Z,100042.78
2022-12-15T04:58:41.595Z,100039.31
2022-12-15T05:01:26.455Z,100047.19
2022-12-15T05:04:11.628Z,100045.41
2022-12-15T05:06:56.400Z,100035.88
2022-12-15T05:09:41.165Z,100030.63
2022-12-15T05:12:25.973Z,100034.16
2022-12-15T05:15:10.788Z,100034.16
2022-12-15T05:17:55.567Z,100038.56
2022-12-15T05:20:40.503Z,100039.47
2022-12-15T05:23:25.195Z,100042.09
2022-12-15T05:26:10.123Z,100041.22
2022-12-15T05:28:54.845Z,100038.72
2022-12-15T05:31:39.708Z,100038.72
2022-12-15T05:34:06.887Z,100043.09
2022-12-15T05:36:33.285Z,100048.41
2022-12-15T05:38:59.630Z,100050.16
2022-12-15T05:41:25.977Z,100057.09
2022-12-15T05:43:52.393Z,100040.53
2022-12-15T05:46:19.866Z,100051.84
2022-12-15T05:48:46.356Z,100050.16
2022-12-15T05:51:13.297Z,100053.63
2022-12-15T05:53:40.893Z,100065.03
2022-12-15T05:56:13.222Z,100062.25
2022-12-15T05:58:45.192Z,100057.97
2022-12-15T06:01:15.365Z,100070.09
2022-12-15T06:03:42.363Z,100078.91
2022-12-15T06:06:10.158Z,100073.66
2022-12-15T06:08:39.322Z,100086.66
2022-12-15T06:11:06.201Z,100087.50
2022-12-15T06:13:35.361Z,100083.19
2022-12-15T06:16:05.000Z,100084.88
2022-12-15T06:18:37.440Z,100085.81
2022-12-15T06:21:06.978Z,100083.19
2022-12-15T06:23:34.553Z,100091.88
2022-12-15T06:26:12.515Z,100099.72
2022-12-15T06:28:38.883Z,100101.50
2022-12-15T06:31:07.394Z,100101.50
2022-12-15T06:33:34.517Z,100100.56
2022-12-15T06:36:07.069Z,100107.56
2022-12-15T06:38:33.867Z,100096.19
2022-12-15T06:41:01.341Z,100101.41
2022-12-15T06:43:28.964Z,100090.94
2022-12-15T06:45:56.126Z,100106.59
2022-12-15T06:48:23.783Z,100110.88
2022-12-15T06:50:51.195Z,100106.59
2022-12-15T06:53:19.365Z,100103.03
2022-12-15T06:55:46.291Z,100096.13
2022-12-15T06:58:13.996Z,100101.28
2022-12-15T07:00:45.462Z,100106.44
2022-12-15T07:03:18.238Z,100106.44
2022-12-15T07:05:45.554Z,100106.44
2022-12-15T07:08:16.483Z,100090.72
2022-12-15T07:10:44.609Z,100093.34
2022-12-15T07:13:12.454Z,100091.66
2022-12-15T07:15:39.726Z,100108.19
2022-12-15T07:18:06.614Z,100108.25
2022-12-15T07:20:33.366Z,100109.03
2022-12-15T07:23:00.646Z,100113.44
2022-12-15T07:25:26.985Z,100116.06
2022-12-15T07:27:53.285Z,100127.34
2022-12-15T07:30:19.626Z,100134.31
2022-12-15T07:32:50.177Z,100125.53
2022-12-15T07:35:17.839Z,100133.22
2022-12-15T07:37:44.159Z,100135.84
2022-12-15T07:40:11.017Z,100141.00
2022-12-15T07:42:37.410Z,100135.69
2022-12-15T07:45:05.413Z,100135.56
2022-12-15T07:47:32.107Z,100143.31
2022-12-15T07:49:58.719Z,100152.78
2022-12-15T07:52:25.336Z,100161.41
2022-12-15T07:54:51.729Z,100163.09
2022-12-15T07:57:18.464Z,100168.19
2022-12-15T07:59:44.849Z,100169.91
2022-12-15T08:02:12.473Z,100167.19
2022-12-15T08:04:40.029Z,100171.41
2022-12-15T08:07:07.072Z,100167.91
2022-12-15T08:09:33.414Z,100166.91
2022-12-15T08:11:59.767Z,100171.13
2022-12-15T08:14:26.208Z,100176.22
2022-12-15T08:16:52.621Z,100174.38
2022-12-15T08:19:19.145Z,100177.75
2022-12-15T08:21:46.753Z,100177.63
2022-12-15T08:24:14.192Z,100187.84
2022-12-15T08:26:42.060Z,100180.69
2022-12-15T08:31:58.528Z,100185.44
2022-12-15T08:34:24.997Z,100190.53
2022-12-15T08:36:54.446Z,100196.38
2022-12-15T08:39:29.869Z,100186.53
2022-12-15T08:41:56.185Z,100197.63
2022-12-15T08:44:22.745Z,100194.84
2022-12-15T08:46:49.044Z,100205.03
2022-12-15T08:49:21.516Z,100199.63
2022-12-15T08:51:50.000Z,100204.53
2022-12-15T08:54:17.125Z,100205.09
2022-12-15T08:56:43.457Z,100196.94
2022-12-15T08:59:09.935Z,100201.91
2022-12-15T09:01:40.085Z,100203.34
2022-12-15T09:04:06.722Z,100195.97
2022-12-15T09:06:35.397Z,100206.16
2022-12-15T09:09:07.703Z,100205.84
2022-12-15T09:11:34.595Z,100205.50
2022-12-15T09:14:01.097Z,100193.84
2022-12-15T09:16:28.249Z,100197.91
2022-12-15T09:18:57.081Z,100208.06
2022-12-15T09:21:26.168Z,100212.97
2022-12-15T09:23:57.620Z,100217.91
2022-12-15T09:26:24.022Z,100216.63
2022-12-15T09:28:51.165Z,100218.09
2022-12-15T09:31:21.915Z,100211.66
2022-12-15T09:33:50.436Z,100227.03
2022-12-15T09:36:16.922Z,100221.44
2022-12-15T09:38:44.014Z,100224.75
2022-12-15T09:41:13.320Z,100218.31
2022-12-15T09:44:03.129Z,100224.16
2022-12-15T09:46:50.297Z,100225.50
2022-12-15T09:49:35.431Z,100230.41
2022-12-15T09:52:14.426Z,100233.53
2022-12-15T09:54:43.408Z,100233.19
2022-12-15T09:57:56.064Z,100238.00
2022-12-15T10:00:36.907Z,100230.59
2022-12-15T10:03:45.211Z,100222.28
2022-12-15T10:06:18.447Z,100225.41
2022-12-15T10:08:55.860Z,100228.63
2022-12-15T10:11:35.798Z,100226.47
2022-12-15T10:14:15.512Z,100237.53
2022-12-15T10:17:21.433Z,100249.41
2022-12-15T10:20:03.297Z,100255.97
2022-12-15T10:22:39.032Z,100249.53
2022-12-15T10:25:30.452Z,100250.94
2022-12-15T10:28:15.708Z,100254.16
2022-12-15T10:31:00.059Z,100249.47
2022-12-15T10:33:33.295Z,100248.13
2022-12-15T10:36:00.123Z,100248.69
2022-12-15T10:38:40.458Z,100252.72
2022-12-15T10:41:12.308Z,100247.13
2022-12-15T10:43:41.848Z,100248.50
2022-12-15T10:46:13.812Z,100238.56
2022-12-15T10:48:43.971Z,100242.59
2022-12-15T10:51:31.500Z,100250.09
2022-12-15T10:54:04.466Z,100244.34
2022-12-15T10:56:33.890Z,100250.19
2022-12-15T10:59:39.385Z,100248.03
2022-12-15T11:02:25.079Z,100236.25
2022-12-15T11:04:59.470Z,100233.13
2022-12-15T11:07:46.053Z,100241.59
2022-12-15T11:10:21.557Z,100247.41
2022-12-15T11:13:10.376Z,100241.81
2022-12-15T11:15:51.639Z,100241.44
2022-12-15T11:18:21.021Z,100241.88
2022-12-15T11:20:54.405Z,100247.63
2022-12-15T11:23:34.193Z,100240.25
2022-12-15T11:26:07.429Z,100242.38
2022-12-15T11:29:00.223Z,100248.94
2022-12-15T11:31:33.404Z,100243.28
2022-12-15T11:33:59.844Z,100248.97
2022-12-15T11:36:53.790Z,100239.91
2022-12-15T11:39:32.292Z,100237.81
2022-12-15T11:42:22.469Z,100235.72
2022-12-15T11:45:03.085Z,100226.53
2022-12-15T11:47:55.596Z,100226.13
2022-12-15T11:50:41.075Z,100227.50
2022-12-15T11:53:18.578Z,100220.13
2022-12-15T11:56:16.011Z,100223.19
2022-12-15T11:59:17.568Z,100231.66
2022-12-15T12:02:05.715Z,100226.03
2022-12-15T12:05:19.885Z,100220.34
2022-12-15T12:07:58.115Z,100228.78
2022-12-15T12:10:40.007Z,100224.13
2022-12-15T12:13:34.063Z,100213.13
2022-12-15T12:16:26.942Z,100208.38
2022-12-15T12:19:51.991Z,100212.50
2022-12-15T12:22:29.983Z,100216.50
2022-12-15T12:25:03.519Z,100206.56
2022-12-15T12:27:42.844Z,100213.31
2022-12-15T12:30:18.501Z,100213.94
2022-12-15T12:32:50.934Z,100216.34
2022-12-15T12:35:31.054Z,100216.03
2022-12-15T12:38:03.866Z,100214.88
2022-12-15T12:40:55.827Z,100205.75
2022-12-15T12:43:38.146Z,100198.25
2022-12-15T12:46:25.447Z,100213.78
2022-12-15T12:49:11.358Z,100201.19
2022-12-15T12:51:41.341Z,100184.13
2022-12-15T12:54:33.557Z,100193.63
2022-12-15T12:57:00.953Z,100198.59
2022-12-15T12:59:30.377Z,100195.03
2022-12-15T13:02:15.218Z,100189.50
2022-12-15T13:04:44.322Z,100183.25
2022-12-15T13:07:29.299Z,100187.38
2022-12-15T13:10:07.802Z,100188.06
2022-12-15T13:12:53.200Z,100190.63
2022-12-15T13:15:35.800Z,100179.81
2022-12-15T13:18:25.171Z,100177.06
2022-12-15T13:20:55.275Z,100182.22
2022-12-15T13:23:21.630Z,100173.34
2022-12-15T13:25:57.125Z,100167.00
2022-12-15T13:28:45.568Z,100172.06
2022-12-15T13:31:21.717Z,100161.38
2022-12-15T13:33:51.249Z,100168.44
2022-12-15T13:36:36.437Z,100158.81
2022-12-15T13:39:23.044Z,100164.13
2022-12-15T13:44:43.879Z,100167.59
2022-12-15T13:47:25.045Z,100156.19
2022-12-15T13:55:39.151Z,100159.78
2022-12-15T13:58:19.289Z,100165.09
2022-12-15T14:00:58.037Z,100158.09
2022-12-15T14:03:25.825Z,100159.91
2022-12-15T14:05:55.285Z,100151.97
2022-12-15T14:08:23.977Z,100145.72
2022-12-15T14:10:54.620Z,100147.66
2022-12-15T14:13:24.945Z,100145.84
2022-12-15T14:15:58.105Z,100145.00
2022-12-15T14:18:30.502Z,100153.03
2022-12-15T14:20:58.562Z,100150.50
2022-12-15T14:23:38.362Z,100154.09
2022-12-15T14:26:08.435Z,100155.06
2022-12-15T14:28:36.856Z,100156.16
2022-12-15T14:31:17.486Z,100150.84
2022-12-15T14:33:46.780Z,100147.47
2022-12-15T14:36:20.386Z,100137.13
2022-12-15T14:39:18.251Z,100142.66
2022-12-15T14:41:49.198Z,100141.91
2022-12-15T14:44:31.906Z,100149.22
2022-12-15T14:47:16.499Z,100154.72
2022-12-15T14:49:45.313Z,100157.69
2022-12-15T14:52:27.052Z,100154.34
2022-12-15T14:55:02.191Z,100151.19
2022-12-15T14:57:41.114Z,100147.09
2022-12-15T15:00:32.429Z,100144.91
2022-12-15T15:03:07.607Z,100161.47
2022-12-15T15:06:01.189Z,100142.91
2022-12-15T15:08:32.613Z,100146.75
2022-12-15T15:11:04.630Z,100148.03
2022-12-15T15:13:40.850Z,100149.31
2022-12-15T15:16:15.660Z,100154.09
2022-12-15T15:18:43.279Z,100146.59
2022-12-15T15:21:21.388Z,100139.09
2022-12-15T15:24:11.944Z,100134.16
2022-12-15T15:26:44.095Z,100135.53
2022-12-15T15:29:32.213Z,100127.13
2022-12-15T15:32:22.382Z,100131.00
2022-12-15T15:34:49.659Z,100127.00
2022-12-15T15:37:22.568Z,100125.66
2022-12-15T15:39:50.407Z,100126.09
2022-12-15T15:42:17.963Z,100121.97
2022-12-15T15:44:47.050Z,100134.63
2022-12-15T15:47:25.476Z,100138.44
2022-12-15T15:49:58.161Z,100136.94
2022-12-15T15:52:29.893Z,100135.59
2022-12-15T15:54:56.334Z,100131.44
2022-12-15T15:57:22.687Z,100125.69
2022-12-15T15:59:49.106Z,100134.63
2022-12-15T16:02:18.452Z,100138.41
2022-12-15T16:04:45.567Z,100144.84
2022-12-15T16:07:26.756Z,100143.38
2022-12-15T16:09:53.784Z,100146.31
2022-12-15T16:12:50.122Z,100147.47
2022-12-15T16:15:21.375Z,100143.97
2022-12-15T16:17:47.795Z,100141.56
2022-12-15T16:20:17.217Z,100148.00
2022-12-15T16:22:47.100Z,100149.97
2022-12-15T16:25:25.790Z,100152.06
2022-12-15T16:27:52.196Z,100151.34
2022-12-15T16:30:23.321Z,100152.47
2022-12-15T16:32:50.477Z,100157.97
2022-12-15T16:35:17.810Z,100160.69
2022-12-15T16:37:49.075Z,100157.31
2022-12-15T16:40:25.342Z,100176.69
2022-12-15T16:42:54.009Z,100169.00
2022-12-15T16:45:21.882Z,100166.44
2022-12-15T16:47:48.626Z,100157.81
2022-12-15T16:50:18.443Z,100164.03
2022-12-15T16:52:47.536Z,100163.28
2022-12-15T16:55:24.008Z,100169.59
2022-12-15T16:57:51.876Z,100154.84
2022-12-15T17:00:23.324Z,100165.47
2022-12-15T17:02:49.923Z,100165.69
2022-12-15T17:05:17.199Z,100171.88
2022-12-15T17:07:47.817Z,100165.88
2022-12-15T17:10:33.387Z,100176.50
2022-12-15T17:13:13.175Z,100178.38
2022-12-15T17:15:40.091Z,100176.78
2022-12-15T17:18:06.851Z,100181.41
2022-12-15T17:20:33.418Z,100186.78
2022-12-15T17:23:04.110Z,100190.44
2022-12-15T17:26:09.719Z,100187.09
2022-12-15T17:28:26.795Z,100189.81
2022-12-15T17:30:54.104Z,100187.47
2022-12-15T17:33:24.096Z,100184.94
2022-12-15T17:35:54.253Z,100185.13
2022-12-15T17:38:22.594Z,100179.97
2022-12-15T17:40:51.656Z,100182.69
2022-12-15T17:43:28.171Z,100187.22
2022-12-15T17:45:58.337Z,100191.72
2022-12-15T17:48:25.285Z,100197.06
2022-12-15T17:50:53.502Z,100205.09
2022-12-15T17:53:22.351Z,100213.91
2022-12-15T17:55:49.786Z,100212.22
2022-12-15T17:58:22.226Z,100212.31
2022-12-15T18:00:51.781Z,100214.94
2022-12-15T18:03:22.737Z,100228.22
2022-12-15T18:05:52.926Z,100222.09
2022-12-15T18:08:23.455Z,100228.31
2022-12-15T18:10:53.336Z,100230.94
2022-12-15T18:13:35.453Z,100229.25
2022-12-15T18:16:02.139Z,100226.69
2022-12-15T18:18:28.753Z,100232.06
2022-12-15T18:21:00.229Z,100232.16
2022-12-15T18:23:30.904Z,100227.84
2022-12-15T18:26:02.848Z,100227.09
2022-12-15T18:28:32.345Z,100228.00
2022-12-15T18:31:06.645Z,100235.06
2022-12-15T18:33:33.625Z,100250.09
2022-12-15T18:36:00.329Z,100246.63
2022-12-15T18:38:28.691Z,100246.63
2022-12-15T18:40:58.183Z,100244.94
2022-12-15T18:43:28.777Z,100249.38
2022-12-15T18:45:55.969Z,100243.22
2022-12-15T18:48:28.544Z,100247.56
2022-12-15T18:50:57.138Z,100252.84
2022-12-15T18:53:30.832Z,100252.84
2022-12-15T18:56:00.580Z,100262.41
2022-12-15T18:58:29.597Z,100262.53
2022-12-15T19:00:58.331Z,100259.03
2022-12-15T19:03:26.338Z,100264.28
2022-12-15T19:06:00.116Z,100266.06
2022-12-15T19:08:28.193Z,100264.28
2022-12-15T19:10:57.085Z,100258.19
2022-12-15T19:13:28.607Z,100247.78
2022-12-15T19:15:55.521Z,100251.25
2022-12-15T19:18:42.860Z,100239.88
2022-12-15T19:21:38.532Z,100245.97
2022-12-15T19:24:07.409Z,100242.50
2022-12-15T19:26:33.747Z,100246.06
2022-12-15T19:29:00.275Z,100248.81
2022-12-15T19:31:26.729Z,100247.94
2022-12-15T19:33:53.326Z,100247.19
2022-12-15T19:36:25.708Z,100249.06
2022-12-15T19:38:54.800Z,100251.78
2022-12-15T19:41:21.441Z,100249.25
2022-12-15T19:43:47.969Z,100246.72
2022-12-15T19:46:17.678Z,100245.88
2022-12-15T19:48:44.460Z,100233.75
2022-12-15T19:51:13.421Z,100231.19
2022-12-15T19:53:40.661Z,100233.00
2022-12-15T19:56:07.831Z,100227.84
2022-12-15T19:58:35.386Z,100229.59
2022-12-15T20:01:06.188Z,100235.72
2022-12-15T20:03:34.322Z,100226.97
2022-12-15T20:06:02.706Z,100225.28
2022-12-15T20:08:38.100Z,100221.81
2022-12-15T20:11:05.051Z,100220.88
2022-12-15T20:13:31.905Z,100233.28
2022-12-15T20:15:58.574Z,100241.34
2022-12-15T20:18:24.967Z,100239.84
2022-12-15T20:20:51.419Z,100240.19
2022-12-15T20:23:21.239Z,100237.75
2022-12-15T20:25:47.880Z,100237.19
2022-12-15T20:28:18.986Z,100229.59
2022-12-15T20:30:46.232Z,100221.13
2022-12-15T20:33:13.082Z,100224.84
2022-12-15T20:35:40.478Z,100222.47
2022-12-15T20:38:24.982Z,100235.06
2022-12-15T20:40:52.508Z,100232.59
2022-12-15T20:43:21.582Z,100224.06
2022-12-15T20:45:54.761Z,100231.19
2022-12-15T20:48:24.636Z,100232.03
2022-12-15T20:50:51.047Z,100228.66
2022-12-15T20:53:19.940Z,100231.38
2022-12-15T20:55:48.202Z,100230.53
2022-12-15T20:58:15.229Z,100247.31
2022-12-15T21:00:42.103Z,100247.50
2022-12-15T21:03:27.962Z,100250.28
2022-12-15T21:05:56.515Z,100244.44
2022-12-15T21:08:27.303Z,100249.97
2022-12-15T21:11:00.069Z,100251.91
2022-12-15T21:13:30.066Z,100254.81
2022-12-15T21:15:56.718Z,100254.97
2022-12-15T21:19:03.956Z,100255.25
2022-12-15T21:21:18.644Z,100262.44
2022-12-15T21:23:45.681Z,100267.88
2022-12-15T21:26:20.223Z,100265.41
2022-12-15T21:28:48.693Z,100263.88
2022-12-15T21:31:16.508Z,100265.75
2022-12-15T21:33:43.275Z,100265.94
2022-12-15T21:36:16.700Z,100272.94
2022-12-15T21:38:45.802Z,100269.59
2022-12-15T21:41:15.497Z,100270.41
2022-12-15T21:43:42.817Z,100269.47
2022-12-15T21:46:19.051Z,100282.53
2022-12-15T21:49:06.261Z,100281.69
2022-12-15T21:51:37.274Z,100276.44
2022-12-15T21:54:05.093Z,100273.97
2022-12-15T21:56:32.012Z,100277.53
2022-12-15T21:58:59.008Z,100276.84
2022-12-15T22:01:29.754Z,100277.88
2022-12-15T22:03:58.453Z,100288.50
2022-12-15T22:06:27.921Z,100278.19
2022-12-15T22:08:58.508Z,100277.50
2022-12-15T22:11:28.136Z,100283.78
2022-12-15T22:13:55.855Z,100290.03
2022-12-15T22:16:23.003Z,100281.50
2022-12-15T22:18:58.613Z,100287.75
2022-12-15T22:21:25.648Z,100294.84
2022-12-15T22:23:52.283Z,100289.69
2022-12-15T22:26:24.339Z,100290.63
2022-12-15T22:28:51.571Z,100287.22
2022-12-15T22:31:18.497Z,100293.41
2022-12-15T22:33:44.934Z,100283.94
2022-12-15T22:36:11.368Z,100278.75
2022-12-15T22:38:37.836Z,100284.09
2022-12-15T22:41:05.673Z,100286.72
2022-12-15T22:43:40.826Z,100278.91
2022-12-15T22:46:12.283Z,100283.22
2022-12-15T22:48:42.067Z,100279.75
2022-12-15T22:51:12.957Z,100278.84
2022-12-15T22:53:39.445Z,100279.69
2022-12-15T22:56:15.918Z,100281.53
2022-12-15T22:58:47.114Z,100282.38
2022-12-15T23:01:13.750Z,100278.13
2022-12-15T23:03:40.121Z,100278.13
2022-12-15T23:06:06.839Z,100280.75
2022-12-15T23:08:33.162Z,100283.38
2022-12-15T23:11:18.949Z,100285.09
2022-12-15T23:13:45.198Z,100281.53
2022-12-15T23:16:21.652Z,100286.72
2022-12-15T23:18:50.636Z,100285.09
2022-12-15T23:21:18.988Z,100287.78
2022-12-15T23:23:45.703Z,100294.72
2022-12-15T23:26:13.009Z,100297.44
2022-12-15T23:28:40.470Z,100295.72
2022-12-15T23:31:07.520Z,100303.69
2022-12-15T23:33:34.750Z,100300.25
2022-12-15T23:36:02.228Z,100305.66
2022-12-15T23:38:29.404Z,100302.25
2022-12-15T23:40:56.902Z,100305.88
2022-12-15T23:43:25.118Z,100305.16
2022-12-15T23:46:05.573Z,100313.97
2022-12-15T23:48:34.917Z,100311.53
2022-12-15T23:51:05.976Z,100304.72
2022-12-15T23:53:33.305Z,100319.72
2022-12-15T23:56:11.496Z,100317.16
2022-12-15T23:58:39.491Z,100305.06
